createdAt,value
2023-11-01T00:02:07.487Z,64.05
2023-11-01T00:05:09.768Z,64.06
2023-11-01T00:08:12.099Z,63.73
2023-11-01T00:11:14.333Z,63.94
2023-11-01T00:14:16.626Z,63.56
2023-11-01T00:17:19.010Z,63.88
2023-11-01T00:20:21.319Z,64.23
2023-11-01T00:23:23.540Z,64.01
2023-11-01T00:26:25.905Z,64.14
2023-11-01T00:29:30.944Z,64.08
2023-11-01T00:32:33.372Z,63.81
2023-11-01T00:35:36.667Z,63.84
2023-11-01T00:38:38.998Z,63.62
2023-11-01T00:41:41.232Z,63.93
2023-11-01T00:44:43.604Z,64.01
2023-11-01T00:47:45.912Z,63.67
2023-11-01T00:50:48.270Z,63.48
2023-11-01T00:53:50.493Z,63.75
2023-11-01T00:56:52.682Z,63.26
2023-11-01T00:59:55.394Z,63.31
2023-11-01T01:02:57.936Z,63.22
2023-11-01T01:06:01.117Z,63.75
2023-11-01T01:09:03.738Z,63.65
2023-11-01T01:12:06.510Z,63.54
2023-11-01T01:15:09.045Z,63.83
2023-11-01T01:18:11.669Z,63.52
2023-11-01T01:21:16.848Z,63.42
2023-11-01T01:24:19.062Z,63.64
2023-11-01T01:27:21.243Z,63.12
2023-11-01T01:30:23.466Z,63.34
2023-11-01T01:33:28.359Z,63.60
2023-11-01T01:36:30.638Z,63.27
2023-11-01T01:39:32.830Z,63.01
2023-11-01T01:42:35.123Z,63.12
2023-11-01T01:45:37.687Z,62.55
2023-11-01T01:48:40.933Z,62.61
2023-11-01T01:51:43.547Z,62.48
2023-11-01T01:54:45.780Z,62.49
2023-11-01T01:57:48.106Z,62.08
2023-11-01T02:00:51.449Z,62.16
2023-11-01T02:03:53.728Z,61.95
2023-11-01T02:06:55.975Z,61.65
2023-11-01T02:09:58.174Z,61.75
2023-11-01T02:13:13.712Z,61.50
2023-11-01T02:16:15.917Z,61.52
2023-11-01T02:19:18.357Z,61.60
2023-11-01T02:22:20.749Z,61.47
2023-11-01T02:25:23.062Z,62.00
2023-11-01T02:28:25.288Z,61.26
2023-11-01T02:31:27.616Z,60.93
2023-11-01T02:34:30.146Z,60.81
2023-11-01T02:37:32.377Z,61.11
2023-11-01T02:40:36.203Z,60.71
2023-11-01T02:43:38.353Z,61.16
2023-11-01T02:46:40.631Z,60.74
2023-11-01T02:49:42.814Z,60.51
2023-11-01T02:52:45.010Z,61.09
2023-11-01T02:55:47.155Z,61.21
2023-11-01T02:58:49.322Z,61.20
2023-11-01T03:01:52.147Z,61.37
2023-11-01T03:04:54.338Z,61.34
2023-11-01T03:07:57.473Z,61.49
2023-11-01T03:10:59.818Z,61.74
2023-11-01T03:14:02.068Z,61.65
2023-11-01T03:17:04.853Z,62.08
2023-11-01T03:20:14.591Z,61.90
2023-11-01T03:23:16.834Z,61.92
2023-11-01T03:26:19.168Z,62.53
2023-11-01T03:29:22.000Z,62.62
2023-11-01T03:32:24.286Z,62.93
2023-11-01T03:35:27.182Z,63.25
2023-11-01T03:38:29.433Z,62.92
2023-11-01T03:41:32.121Z,63.08
2023-11-01T03:44:35.179Z,62.85
2023-11-01T03:47:37.526Z,62.79
2023-11-01T03:50:39.802Z,62.80
2023-11-01T03:53:42.067Z,62.97
2023-11-01T03:56:44.486Z,62.59
2023-11-01T03:59:46.928Z,62.94
2023-11-01T04:02:53.504Z,62.87
2023-11-01T04:05:56.172Z,62.67
2023-11-01T04:09:00.090Z,62.73
2023-11-01T04:12:02.250Z,63.05
2023-11-01T04:15:07.533Z,62.71
2023-11-01T04:18:09.789Z,63.20
2023-11-01T04:21:12.073Z,62.86
2023-11-01T04:24:14.892Z,63.18
2023-11-01T04:27:17.071Z,63.11
2023-11-01T04:30:19.393Z,63.06
2023-11-01T04:33:21.572Z,63.16
2023-11-01T04:36:26.546Z,63.70
2023-11-01T04:39:28.809Z,63.63
2023-11-01T04:42:31.010Z,64.03
2023-11-01T04:45:33.218Z,63.62
2023-11-01T04:48:35.412Z,63.92
2023-11-01T04:51:37.656Z,63.76
2023-11-01T04:54:39.876Z,63.89
2023-11-01T04:57:44.880Z,63.39
2023-11-01T05:00:47.068Z,63.40
2023-11-01T05:03:49.912Z,63.33
2023-11-01T05:06:52.627Z,62.63
2023-11-01T05:09:54.793Z,62.93
2023-11-01T05:12:58.562Z,63.15
2023-11-01T05:16:00.746Z,63.22
2023-11-01T05:19:02.973Z,63.47
2023-11-01T05:22:05.132Z,62.60
2023-11-01T05:25:14.871Z,62.52
2023-11-01T05:28:17.405Z,62.63
2023-11-01T05:31:19.612Z,63.00
2023-11-01T05:34:21.812Z,62.63
2023-11-01T05:37:24.001Z,62.54
2023-11-01T05:40:26.182Z,63.12
2023-11-01T05:43:28.369Z,63.23
2023-11-01T05:46:30.733Z,63.27
2023-11-01T05:49:33.034Z,63.44
2023-11-01T05:52:35.677Z,63.85
2023-11-01T05:55:48.960Z,64.08
2023-11-01T05:59:00.798Z,64.07
2023-11-01T06:02:03.025Z,63.84
2023-11-01T06:05:05.668Z,63.52
2023-11-01T06:08:10.210Z,63.72
2023-11-01T06:11:12.558Z,63.62
2023-11-01T06:14:14.987Z,63.69
2023-11-01T06:17:17.414Z,63.80
2023-11-01T06:20:19.669Z,63.81
2023-11-01T06:23:21.890Z,63.66
2023-11-01T06:26:24.128Z,63.37
2023-11-01T06:29:26.450Z,63.37
2023-11-01T06:32:28.637Z,63.04
2023-11-01T06:35:30.829Z,62.64
2023-11-01T06:38:33.560Z,62.66
2023-11-01T06:41:35.831Z,62.64
2023-11-01T06:44:38.109Z,62.73
2023-11-01T06:47:40.485Z,62.37
2023-11-01T06:50:42.992Z,62.16
2023-11-01T06:53:45.247Z,62.27
2023-11-01T06:56:47.931Z,62.10
2023-11-01T06:59:50.149Z,61.95
2023-11-01T07:02:52.519Z,61.77
2023-11-01T07:05:54.734Z,61.94
2023-11-01T07:08:57.289Z,61.24
2023-11-01T07:11:59.547Z,61.55
2023-11-01T07:15:01.748Z,61.09
2023-11-01T07:18:04.186Z,61.20
2023-11-01T07:21:07.037Z,60.83
2023-11-01T07:24:09.419Z,61.21
2023-11-01T07:27:11.615Z,61.89
2023-11-01T07:30:13.952Z,61.52
2023-11-01T07:33:16.271Z,61.26
2023-11-01T07:36:19.088Z,60.68
2023-11-01T07:39:21.275Z,60.65
2023-11-01T07:42:23.503Z,60.80
2023-11-01T07:45:25.713Z,60.85
2023-11-01T07:48:27.968Z,60.34
2023-11-01T07:51:30.475Z,60.21
2023-11-01T07:54:33.176Z,59.95
2023-11-01T07:57:35.559Z,59.75
2023-11-01T08:00:37.722Z,59.92
2023-11-01T08:03:40.180Z,59.44
2023-11-01T08:06:42.466Z,59.22
2023-11-01T08:09:45.313Z,59.38
2023-11-01T08:12:47.578Z,59.05
2023-11-01T08:15:50.477Z,59.15
2023-11-01T08:50:43.087Z,58.74
2023-11-01T09:06:01.397Z,58.30
2023-11-01T09:21:44.282Z,57.92
2023-11-01T09:25:47.920Z,58.31
2023-11-01T09:41:17.834Z,57.37
2023-11-01T09:52:40.688Z,57.41
2023-11-01T09:56:18.468Z,57.13
2023-11-01T10:11:19.631Z,57.17
2023-11-01T10:15:36.898Z,56.33
2023-11-01T10:27:41.222Z,56.25
2023-11-01T10:32:12.446Z,56.18
2023-11-01T10:35:50.901Z,56.07
2023-11-01T10:43:43.414Z,55.78
2023-11-01T10:55:07.582Z,55.38
2023-11-01T10:59:00.012Z,55.27
2023-11-01T11:10:43.183Z,54.75
2023-11-01T11:19:02.389Z,53.18
2023-11-01T11:31:20.118Z,52.36
2023-11-01T11:59:47.685Z,50.05
2023-11-01T12:15:53.012Z,47.94
2023-11-01T12:23:23.553Z,46.77
2023-11-01T12:32:11.960Z,46.39
2023-11-01T12:49:16.137Z,44.29
2023-11-01T12:57:01.086Z,44.38
2023-11-01T13:09:26.911Z,44.18
2023-11-01T13:13:35.409Z,43.71
2023-11-01T13:17:19.076Z,43.81
2023-11-01T13:25:43.165Z,44.51
2023-11-01T13:30:07.720Z,44.47
2023-11-01T13:56:02.152Z,45.15
2023-11-01T14:07:22.244Z,44.70
2023-11-01T14:19:13.197Z,44.37
2023-11-01T15:00:18.591Z,44.64
2023-11-01T15:31:48.215Z,45.19
2023-11-01T15:56:52.638Z,47.73
2023-11-01T16:20:37.673Z,49.44
2023-11-01T16:23:55.662Z,50.01
2023-11-01T16:27:23.097Z,50.16
2023-11-01T16:39:47.875Z,50.81
2023-11-01T17:51:16.659Z,51.74
2023-11-01T18:06:46.926Z,52.22
2023-11-01T18:14:30.404Z,52.41
2023-11-01T18:38:33.925Z,52.77
2023-11-01T18:50:44.034Z,53.07
2023-11-01T18:54:41.568Z,52.80
2023-11-01T19:02:23.669Z,52.94
2023-11-01T19:26:29.630Z,54.24
2023-11-01T19:34:22.280Z,54.77
2023-11-01T19:42:19.810Z,54.70
2023-11-01T19:50:05.223Z,55.03
2023-11-01T19:57:51.274Z,55.78
2023-11-01T20:01:40.383Z,55.86
2023-11-01T20:05:27.220Z,56.12
2023-11-01T20:09:05.409Z,56.41
2023-11-01T20:20:45.770Z,57.17
2023-11-01T20:24:37.553Z,57.29
2023-11-01T20:40:14.297Z,58.04
2023-11-01T20:48:06.159Z,58.30
2023-11-01T21:00:11.195Z,58.38
2023-11-01T21:24:54.048Z,58.69
2023-11-01T21:37:32.026Z,58.76
2023-11-01T21:45:29.121Z,58.79
2023-11-01T21:49:23.059Z,58.43
2023-11-01T22:01:40.582Z,59.18
2023-11-01T22:17:52.201Z,59.56
2023-11-01T22:21:16.492Z,59.18
2023-11-01T22:24:52.409Z,59.71
2023-11-01T22:36:27.185Z,59.59
2023-11-01T23:00:36.154Z,60.13
2023-11-01T23:04:59.016Z,59.79
2023-11-01T23:36:57.156Z,59.74
2023-11-01T23:49:48.463Z,59.58
